Accueil
METAR-TAF:

METAR-TAF

Aéroports :

P11-b, Pays-Bas

Plate-forme pétrolière

latitude: 52-21-36N, longitude: 3-20-30E, altitude: 24 m

Observation

Le bulletin a été fait il y a 22 minutes, à 18:55 UTC
Vent 26 kt de nord/nord-est, variant entre nord et nord-est
Température 4°C
Humidité 81%
Pression 984 hPa
Visibilité: 9000 m
Quelques nuages à une hauteur de 800 ft
Nuages épars à une hauteur de 1200 ft
Nuages fragmentés à une hauteur de 1500 ft

METAR: EHPG 111855Z AUTO 02026KT 350V050 9000 FEW008 SCT012 BKN015 04/01 Q0984 W///H///

Heure: 20:17 (19:17 UTC)


TAF: absent

Observations et prévisions météorologiques de plus de 4000 aéroports (messages METAR et TAF).

Les stations disponibles sont représentées par des disques jaunes et rouges sur la carte.

Passer la souris dessus pour voir le nom de la station.

Cliquer dessus pour voir les observations et prévisions météorologiques.

Pour changer de carte: cliquez sur les boutons verts avec une croix noire pour zoomer, sur le bouton vert avec un tiret pour effectuer un zoom arrière, ou sur les flèches vertes pour les cartes adjacentes.


METAR-TAF: